sensor_id;sensor_type;location;lat;lon;timestamp;P1;durP1;ratioP1;P2;durP2;ratioP2
6392;SDS011;3229;42.674;23.282;2022-09-25T00:01:00;6.70;;;5.37;;
6392;SDS011;3229;42.674;23.282;2022-09-25T00:03:28;7.57;;;5.97;;
6392;SDS011;3229;42.674;23.282;2022-09-25T00:06:01;10.10;;;6.43;;
6392;SDS011;3229;42.674;23.282;2022-09-25T00:08:29;8.93;;;6.13;;
6392;SDS011;3229;42.674;23.282;2022-09-25T00:10:56;11.47;;;6.20;;
6392;SDS011;3229;42.674;23.282;2022-09-25T00:13:23;6.33;;;5.73;;
6392;SDS011;3229;42.674;23.282;2022-09-25T00:15:51;7.13;;;5.60;;
6392;SDS011;3229;42.674;23.282;2022-09-25T00:18:20;9.23;;;5.97;;
6392;SDS011;3229;42.674;23.282;2022-09-25T00:21:03;6.53;;;5.40;;
6392;SDS011;3229;42.674;23.282;2022-09-25T00:23:30;7.27;;;5.73;;
6392;SDS011;3229;42.674;23.282;2022-09-25T00:25:57;6.10;;;5.03;;
6392;SDS011;3229;42.674;23.282;2022-09-25T00:28:24;8.97;;;5.80;;
6392;SDS011;3229;42.674;23.282;2022-09-25T00:30:53;8.30;;;6.00;;
6392;SDS011;3229;42.674;23.282;2022-09-25T00:33:20;8.23;;;5.77;;
6392;SDS011;3229;42.674;23.282;2022-09-25T00:35:47;8.50;;;5.93;;
6392;SDS011;3229;42.674;23.282;2022-09-25T00:38:16;7.63;;;5.13;;
6392;SDS011;3229;42.674;23.282;2022-09-25T00:40:42;7.60;;;5.80;;
6392;SDS011;3229;42.674;23.282;2022-09-25T00:43:11;11.53;;;5.80;;
6392;SDS011;3229;42.674;23.282;2022-09-25T00:45:39;7.10;;;5.63;;
6392;SDS011;3229;42.674;23.282;2022-09-25T00:48:07;10.43;;;6.23;;
6392;SDS011;3229;42.674;23.282;2022-09-25T00:50:41;6.97;;;5.60;;
6392;SDS011;3229;42.674;23.282;2022-09-25T00:53:17;5.80;;;5.10;;
6392;SDS011;3229;42.674;23.282;2022-09-25T00:55:47;7.27;;;5.80;;
6392;SDS011;3229;42.674;23.282;2022-09-25T00:58:15;6.40;;;5.23;;
6392;SDS011;3229;42.674;23.282;2022-09-25T01:00:46;7.07;;;5.20;;
6392;SDS011;3229;42.674;23.282;2022-09-25T01:03:13;5.47;;;4.70;;
6392;SDS011;3229;42.674;23.282;2022-09-25T01:05:42;7.30;;;5.37;;
6392;SDS011;3229;42.674;23.282;2022-09-25T01:08:11;6.37;;;5.33;;
6392;SDS011;3229;42.674;23.282;2022-09-25T01:10:42;6.17;;;5.07;;
6392;SDS011;3229;42.674;23.282;2022-09-25T01:13:09;6.87;;;5.40;;
6392;SDS011;3229;42.674;23.282;2022-09-25T01:15:39;6.57;;;5.10;;
6392;SDS011;3229;42.674;23.282;2022-09-25T01:18:14;7.73;;;5.47;;
6392;SDS011;3229;42.674;23.282;2022-09-25T01:20:59;5.57;;;4.87;;
6392;SDS011;3229;42.674;23.282;2022-09-25T01:26:35;5.80;;;4.67;;
6392;SDS011;3229;42.674;23.282;2022-09-25T01:29:21;6.20;;;5.20;;
6392;SDS011;3229;42.674;23.282;2022-09-25T01:31:54;5.43;;;4.63;;
6392;SDS011;3229;42.674;23.282;2022-09-25T01:34:28;5.37;;;4.60;;
6392;SDS011;3229;42.674;23.282;2022-09-25T01:37:04;5.50;;;4.80;;
6392;SDS011;3229;42.674;23.282;2022-09-25T01:39:40;5.40;;;4.90;;
6392;SDS011;3229;42.674;23.282;2022-09-25T01:42:12;6.10;;;5.13;;
6392;SDS011;3229;42.674;23.282;2022-09-25T01:44:47;5.53;;;4.93;;
6392;SDS011;3229;42.674;23.282;2022-09-25T01:47:21;7.67;;;4.40;;
6392;SDS011;3229;42.674;23.282;2022-09-25T01:49:54;6.67;;;4.93;;
6392;SDS011;3229;42.674;23.282;2022-09-25T01:52:26;5.10;;;4.60;;
6392;SDS011;3229;42.674;23.282;2022-09-25T01:54:58;5.70;;;4.97;;
6392;SDS011;3229;42.674;23.282;2022-09-25T01:57:33;8.63;;;5.37;;
6392;SDS011;3229;42.674;23.282;2022-09-25T02:00:08;10.37;;;5.07;;
6392;SDS011;3229;42.674;23.282;2022-09-25T02:02:40;5.90;;;4.50;;
6392;SDS011;3229;42.674;23.282;2022-09-25T02:05:13;5.73;;;4.83;;
6392;SDS011;3229;42.674;23.282;2022-09-25T02:07:46;5.97;;;4.37;;
6392;SDS011;3229;42.674;23.282;2022-09-25T02:10:16;6.37;;;5.13;;
6392;SDS011;3229;42.674;23.282;2022-09-25T02:12:48;6.53;;;5.10;;
6392;SDS011;3229;42.674;23.282;2022-09-25T02:15:23;6.10;;;4.57;;
6392;SDS011;3229;42.674;23.282;2022-09-25T02:17:54;5.50;;;5.00;;
6392;SDS011;3229;42.674;23.282;2022-09-25T02:20:42;5.87;;;5.00;;
6392;SDS011;3229;42.674;23.282;2022-09-25T02:23:16;6.63;;;4.97;;
6392;SDS011;3229;42.674;23.282;2022-09-25T02:25:47;8.80;;;4.80;;
6392;SDS011;3229;42.674;23.282;2022-09-25T02:28:20;5.63;;;4.73;;
6392;SDS011;3229;42.674;23.282;2022-09-25T02:30:49;6.37;;;5.23;;
6392;SDS011;3229;42.674;23.282;2022-09-25T02:33:18;7.07;;;4.70;;
6392;SDS011;3229;42.674;23.282;2022-09-25T02:35:45;5.87;;;5.13;;
6392;SDS011;3229;42.674;23.282;2022-09-25T02:38:12;6.77;;;4.50;;
6392;SDS011;3229;42.674;23.282;2022-09-25T02:40:42;6.17;;;4.23;;
6392;SDS011;3229;42.674;23.282;2022-09-25T02:43:15;5.60;;;4.73;;
6392;SDS011;3229;42.674;23.282;2022-09-25T02:45:56;4.90;;;4.40;;
6392;SDS011;3229;42.674;23.282;2022-09-25T02:48:35;6.20;;;5.00;;
6392;SDS011;3229;42.674;23.282;2022-09-25T02:51:16;7.10;;;4.90;;
6392;SDS011;3229;42.674;23.282;2022-09-25T02:53:51;6.57;;;4.43;;
6392;SDS011;3229;42.674;23.282;2022-09-25T02:56:24;6.67;;;5.07;;
6392;SDS011;3229;42.674;23.282;2022-09-25T02:58:58;5.63;;;4.47;;
6392;SDS011;3229;42.674;23.282;2022-09-25T03:01:32;11.77;;;4.80;;
6392;SDS011;3229;42.674;23.282;2022-09-25T03:04:02;6.53;;;5.17;;
6392;SDS011;3229;42.674;23.282;2022-09-25T03:06:31;8.33;;;5.23;;
6392;SDS011;3229;42.674;23.282;2022-09-25T03:08:58;5.50;;;4.50;;
6392;SDS011;3229;42.674;23.282;2022-09-25T03:11:26;5.83;;;4.63;;
6392;SDS011;3229;42.674;23.282;2022-09-25T03:13:54;5.97;;;4.57;;
6392;SDS011;3229;42.674;23.282;2022-09-25T03:16:24;5.10;;;4.50;;
6392;SDS011;3229;42.674;23.282;2022-09-25T03:18:59;4.90;;;4.40;;
6392;SDS011;3229;42.674;23.282;2022-09-25T03:21:26;5.27;;;4.77;;
6392;SDS011;3229;42.674;23.282;2022-09-25T03:23:53;6.83;;;4.73;;
6392;SDS011;3229;42.674;23.282;2022-09-25T03:26:21;7.00;;;4.23;;
6392;SDS011;3229;42.674;23.282;2022-09-25T03:28:49;7.57;;;4.50;;
6392;SDS011;3229;42.674;23.282;2022-09-25T03:31:16;10.77;;;5.37;;
6392;SDS011;3229;42.674;23.282;2022-09-25T03:33:43;6.10;;;4.27;;
6392;SDS011;3229;42.674;23.282;2022-09-25T03:36:12;5.23;;;4.73;;
6392;SDS011;3229;42.674;23.282;2022-09-25T03:38:40;6.53;;;4.97;;
6392;SDS011;3229;42.674;23.282;2022-09-25T03:41:09;5.83;;;4.80;;
6392;SDS011;3229;42.674;23.282;2022-09-25T03:43:37;5.93;;;5.33;;
6392;SDS011;3229;42.674;23.282;2022-09-25T03:46:05;6.27;;;4.57;;
6392;SDS011;3229;42.674;23.282;2022-09-25T03:48:33;5.47;;;4.77;;
6392;SDS011;3229;42.674;23.282;2022-09-25T03:51:01;5.07;;;4.67;;
6392;SDS011;3229;42.674;23.282;2022-09-25T03:53:30;5.73;;;4.70;;
6392;SDS011;3229;42.674;23.282;2022-09-25T03:55:57;6.53;;;4.20;;
6392;SDS011;3229;42.674;23.282;2022-09-25T03:58:24;8.60;;;4.80;;
6392;SDS011;3229;42.674;23.282;2022-09-25T04:00:51;5.13;;;4.33;;
6392;SDS011;3229;42.674;23.282;2022-09-25T04:03:21;4.97;;;4.47;;
6392;SDS011;3229;42.674;23.282;2022-09-25T04:05:49;8.80;;;4.87;;
6392;SDS011;3229;42.674;23.282;2022-09-25T04:08:16;5.77;;;4.60;;
6392;SDS011;3229;42.674;23.282;2022-09-25T04:10:44;6.60;;;4.47;;
6392;SDS011;3229;42.674;23.282;2022-09-25T04:13:11;5.97;;;5.37;;
6392;SDS011;3229;42.674;23.282;2022-09-25T04:15:38;5.67;;;4.60;;
6392;SDS011;3229;42.674;23.282;2022-09-25T04:18:05;6.97;;;5.50;;
6392;SDS011;3229;42.674;23.282;2022-09-25T04:20:32;6.07;;;4.60;;
6392;SDS011;3229;42.674;23.282;2022-09-25T04:22:59;6.13;;;4.47;;
6392;SDS011;3229;42.674;23.282;2022-09-25T04:25:26;5.30;;;4.23;;
6392;SDS011;3229;42.674;23.282;2022-09-25T04:27:54;6.83;;;4.37;;
6392;SDS011;3229;42.674;23.282;2022-09-25T04:30:22;8.23;;;4.90;;
6392;SDS011;3229;42.674;23.282;2022-09-25T04:32:49;6.20;;;4.70;;
6392;SDS011;3229;42.674;23.282;2022-09-25T04:35:34;6.13;;;5.30;;
6392;SDS011;3229;42.674;23.282;2022-09-25T04:38:02;5.50;;;4.77;;
6392;SDS011;3229;42.674;23.282;2022-09-25T04:40:29;5.10;;;4.60;;
6392;SDS011;3229;42.674;23.282;2022-09-25T04:42:58;5.83;;;5.00;;
6392;SDS011;3229;42.674;23.282;2022-09-25T04:45:26;8.00;;;5.13;;
6392;SDS011;3229;42.674;23.282;2022-09-25T04:47:57;6.37;;;4.73;;
6392;SDS011;3229;42.674;23.282;2022-09-25T04:50:25;5.27;;;4.77;;
6392;SDS011;3229;42.674;23.282;2022-09-25T04:52:52;5.10;;;4.60;;
6392;SDS011;3229;42.674;23.282;2022-09-25T04:55:19;5.80;;;3.87;;
6392;SDS011;3229;42.674;23.282;2022-09-25T04:57:49;7.43;;;4.83;;
6392;SDS011;3229;42.674;23.282;2022-09-25T05:00:19;6.90;;;5.37;;
6392;SDS011;3229;42.674;23.282;2022-09-25T05:02:46;5.43;;;4.80;;
6392;SDS011;3229;42.674;23.282;2022-09-25T05:05:14;8.00;;;5.13;;
6392;SDS011;3229;42.674;23.282;2022-09-25T05:07:49;5.67;;;4.60;;
6392;SDS011;3229;42.674;23.282;2022-09-25T05:10:17;6.60;;;4.57;;
6392;SDS011;3229;42.674;23.282;2022-09-25T05:12:44;7.83;;;5.20;;
6392;SDS011;3229;42.674;23.282;2022-09-25T05:15:12;5.13;;;4.60;;
6392;SDS011;3229;42.674;23.282;2022-09-25T05:17:41;5.63;;;4.53;;
6392;SDS011;3229;42.674;23.282;2022-09-25T05:20:08;5.03;;;4.50;;
6392;SDS011;3229;42.674;23.282;2022-09-25T05:22:35;5.37;;;4.17;;
6392;SDS011;3229;42.674;23.282;2022-09-25T05:25:02;4.17;;;3.77;;
6392;SDS011;3229;42.674;23.282;2022-09-25T05:27:33;5.63;;;3.93;;
6392;SDS011;3229;42.674;23.282;2022-09-25T05:30:00;5.30;;;4.10;;
6392;SDS011;3229;42.674;23.282;2022-09-25T05:32:28;8.27;;;4.97;;
6392;SDS011;3229;42.674;23.282;2022-09-25T05:34:57;5.67;;;4.97;;
6392;SDS011;3229;42.674;23.282;2022-09-25T05:37:24;4.97;;;3.97;;
6392;SDS011;3229;42.674;23.282;2022-09-25T05:39:50;7.53;;;4.63;;
6392;SDS011;3229;42.674;23.282;2022-09-25T05:42:17;5.97;;;4.47;;
6392;SDS011;3229;42.674;23.282;2022-09-25T05:44:44;6.63;;;4.57;;
6392;SDS011;3229;42.674;23.282;2022-09-25T05:47:11;7.18;;;4.57;;
6392;SDS011;3229;42.674;23.282;2022-09-25T05:49:38;5.32;;;4.38;;
6392;SDS011;3229;42.674;23.282;2022-09-25T05:52:06;7.78;;;4.20;;
6392;SDS011;3229;42.674;23.282;2022-09-25T05:54:33;6.18;;;4.50;;
6392;SDS011;3229;42.674;23.282;2022-09-25T05:57:00;12.13;;;5.47;;
6392;SDS011;3229;42.674;23.282;2022-09-25T05:59:26;7.55;;;5.05;;
6392;SDS011;3229;42.674;23.282;2022-09-25T06:01:53;6.13;;;4.53;;
6392;SDS011;3229;42.674;23.282;2022-09-25T06:04:20;7.53;;;4.97;;
6392;SDS011;3229;42.674;23.282;2022-09-25T06:06:47;8.07;;;4.93;;
6392;SDS011;3229;42.674;23.282;2022-09-25T06:09:15;7.78;;;4.72;;
6392;SDS011;3229;42.674;23.282;2022-09-25T06:11:42;6.07;;;5.07;;
6392;SDS011;3229;42.674;23.282;2022-09-25T06:14:11;6.45;;;5.32;;
6392;SDS011;3229;42.674;23.282;2022-09-25T06:16:39;7.55;;;5.30;;
6392;SDS011;3229;42.674;23.282;2022-09-25T06:19:06;5.63;;;4.82;;
6392;SDS011;3229;42.674;23.282;2022-09-25T06:21:33;7.43;;;4.80;;
6392;SDS011;3229;42.674;23.282;2022-09-25T06:24:00;6.13;;;4.75;;
6392;SDS011;3229;42.674;23.282;2022-09-25T06:26:28;5.40;;;4.53;;
6392;SDS011;3229;42.674;23.282;2022-09-25T06:28:56;4.90;;;4.43;;
6392;SDS011;3229;42.674;23.282;2022-09-25T06:31:24;5.53;;;4.47;;
6392;SDS011;3229;42.674;23.282;2022-09-25T06:33:51;5.05;;;4.53;;
6392;SDS011;3229;42.674;23.282;2022-09-25T06:36:18;5.35;;;4.43;;
6392;SDS011;3229;42.674;23.282;2022-09-25T06:38:45;5.53;;;4.30;;
6392;SDS011;3229;42.674;23.282;2022-09-25T06:41:13;5.32;;;3.88;;
6392;SDS011;3229;42.674;23.282;2022-09-25T06:43:41;4.90;;;4.50;;
6392;SDS011;3229;42.674;23.282;2022-09-25T06:46:08;9.00;;;4.22;;
6392;SDS011;3229;42.674;23.282;2022-09-25T06:48:35;6.03;;;4.13;;
6392;SDS011;3229;42.674;23.282;2022-09-25T06:51:02;6.60;;;3.97;;
6392;SDS011;3229;42.674;23.282;2022-09-25T06:53:29;4.18;;;3.78;;
6392;SDS011;3229;42.674;23.282;2022-09-25T06:55:56;4.30;;;3.47;;
6392;SDS011;3229;42.674;23.282;2022-09-25T06:58:24;4.65;;;3.63;;
6392;SDS011;3229;42.674;23.282;2022-09-25T07:00:53;4.30;;;3.90;;
6392;SDS011;3229;42.674;23.282;2022-09-25T07:03:21;4.28;;;3.88;;
6392;SDS011;3229;42.674;23.282;2022-09-25T07:06:06;3.65;;;3.30;;
6392;SDS011;3229;42.674;23.282;2022-09-25T07:08:35;5.18;;;3.65;;
6392;SDS011;3229;42.674;23.282;2022-09-25T07:11:02;3.65;;;3.35;;
6392;SDS011;3229;42.674;23.282;2022-09-25T07:13:30;6.63;;;3.22;;
6392;SDS011;3229;42.674;23.282;2022-09-25T07:16:01;3.92;;;3.53;;
6392;SDS011;3229;42.674;23.282;2022-09-25T07:18:30;3.72;;;3.42;;
6392;SDS011;3229;42.674;23.282;2022-09-25T07:20:58;3.72;;;3.40;;
6392;SDS011;3229;42.674;23.282;2022-09-25T07:23:27;5.45;;;3.13;;
6392;SDS011;3229;42.674;23.282;2022-09-25T07:25:55;6.63;;;3.88;;
6392;SDS011;3229;42.674;23.282;2022-09-25T07:28:23;3.88;;;3.17;;
6392;SDS011;3229;42.674;23.282;2022-09-25T07:30:50;3.63;;;3.17;;
6392;SDS011;3229;42.674;23.282;2022-09-25T07:33:18;3.42;;;3.10;;
6392;SDS011;3229;42.674;23.282;2022-09-25T07:35:49;3.70;;;3.33;;
6392;SDS011;3229;42.674;23.282;2022-09-25T07:38:16;4.13;;;3.50;;
6392;SDS011;3229;42.674;23.282;2022-09-25T07:40:43;4.18;;;3.53;;
6392;SDS011;3229;42.674;23.282;2022-09-25T07:43:10;5.03;;;3.38;;
6392;SDS011;3229;42.674;23.282;2022-09-25T07:45:37;3.88;;;3.50;;
6392;SDS011;3229;42.674;23.282;2022-09-25T07:48:04;5.25;;;3.65;;
6392;SDS011;3229;42.674;23.282;2022-09-25T07:50:32;4.38;;;3.97;;
6392;SDS011;3229;42.674;23.282;2022-09-25T07:52:59;4.45;;;3.70;;
6392;SDS011;3229;42.674;23.282;2022-09-25T07:55:26;5.55;;;3.67;;
6392;SDS011;3229;42.674;23.282;2022-09-25T07:57:55;5.18;;;3.90;;
6392;SDS011;3229;42.674;23.282;2022-09-25T08:00:22;4.72;;;3.85;;
6392;SDS011;3229;42.674;23.282;2022-09-25T08:02:56;3.70;;;3.40;;
6392;SDS011;3229;42.674;23.282;2022-09-25T08:05:23;4.90;;;4.28;;
6392;SDS011;3229;42.674;23.282;2022-09-25T08:07:52;5.07;;;4.28;;
6392;SDS011;3229;42.674;23.282;2022-09-25T08:10:19;5.90;;;4.50;;
6392;SDS011;3229;42.674;23.282;2022-09-25T08:12:46;7.60;;;4.07;;
6392;SDS011;3229;42.674;23.282;2022-09-25T08:15:14;5.65;;;4.63;;
6392;SDS011;3229;42.674;23.282;2022-09-25T08:17:41;6.53;;;4.00;;
6392;SDS011;3229;42.674;23.282;2022-09-25T08:20:08;5.10;;;4.20;;
6392;SDS011;3229;42.674;23.282;2022-09-25T08:22:37;4.30;;;3.92;;
6392;SDS011;3229;42.674;23.282;2022-09-25T08:25:05;7.50;;;3.97;;
6392;SDS011;3229;42.674;23.282;2022-09-25T08:27:34;5.30;;;3.75;;
6392;SDS011;3229;42.674;23.282;2022-09-25T08:30:04;4.78;;;4.00;;
6392;SDS011;3229;42.674;23.282;2022-09-25T08:32:33;6.88;;;3.83;;
6392;SDS011;3229;42.674;23.282;2022-09-25T08:35:00;5.95;;;3.78;;
6392;SDS011;3229;42.674;23.282;2022-09-25T08:37:27;4.40;;;4.00;;
6392;SDS011;3229;42.674;23.282;2022-09-25T08:39:56;4.18;;;3.72;;
6392;SDS011;3229;42.674;23.282;2022-09-25T08:42:26;4.55;;;3.58;;
6392;SDS011;3229;42.674;23.282;2022-09-25T08:44:59;7.72;;;4.15;;
6392;SDS011;3229;42.674;23.282;2022-09-25T08:47:45;4.32;;;3.80;;
6392;SDS011;3229;42.674;23.282;2022-09-25T08:50:31;4.22;;;3.67;;
6392;SDS011;3229;42.674;23.282;2022-09-25T08:53:02;4.75;;;4.00;;
6392;SDS011;3229;42.674;23.282;2022-09-25T08:55:32;6.07;;;3.55;;
6392;SDS011;3229;42.674;23.282;2022-09-25T08:58:21;3.40;;;3.10;;
6392;SDS011;3229;42.674;23.282;2022-09-25T09:00:50;4.38;;;3.03;;
6392;SDS011;3229;42.674;23.282;2022-09-25T09:03:19;3.85;;;3.28;;
6392;SDS011;3229;42.674;23.282;2022-09-25T09:05:50;3.72;;;3.42;;
6392;SDS011;3229;42.674;23.282;2022-09-25T09:08:22;4.85;;;3.38;;
6392;SDS011;3229;42.674;23.282;2022-09-25T09:10:53;5.10;;;3.50;;
6392;SDS011;3229;42.674;23.282;2022-09-25T09:13:27;4.03;;;3.63;;
6392;SDS011;3229;42.674;23.282;2022-09-25T09:16:01;4.03;;;3.42;;
6392;SDS011;3229;42.674;23.282;2022-09-25T09:18:35;4.05;;;3.65;;
6392;SDS011;3229;42.674;23.282;2022-09-25T09:21:07;6.75;;;4.03;;
6392;SDS011;3229;42.674;23.282;2022-09-25T09:23:41;4.13;;;3.70;;
6392;SDS011;3229;42.674;23.282;2022-09-25T09:26:18;4.32;;;3.42;;
6392;SDS011;3229;42.674;23.282;2022-09-25T09:28:56;6.07;;;3.88;;
6392;SDS011;3229;42.674;23.282;2022-09-25T09:31:38;4.72;;;3.55;;
6392;SDS011;3229;42.674;23.282;2022-09-25T09:34:24;4.28;;;3.88;;
6392;SDS011;3229;42.674;23.282;2022-09-25T09:37:10;3.83;;;3.42;;
6392;SDS011;3229;42.674;23.282;2022-09-25T09:39:45;6.22;;;3.83;;
6392;SDS011;3229;42.674;23.282;2022-09-25T09:42:23;4.38;;;3.42;;
6392;SDS011;3229;42.674;23.282;2022-09-25T09:44:59;3.88;;;3.22;;
6392;SDS011;3229;42.674;23.282;2022-09-25T09:47:36;3.75;;;3.40;;
6392;SDS011;3229;42.674;23.282;2022-09-25T09:50:18;4.20;;;3.78;;
6392;SDS011;3229;42.674;23.282;2022-09-25T09:52:53;4.10;;;3.58;;
6392;SDS011;3229;42.674;23.282;2022-09-25T09:55:29;3.90;;;3.50;;
6392;SDS011;3229;42.674;23.282;2022-09-25T09:58:03;8.00;;;4.03;;
6392;SDS011;3229;42.674;23.282;2022-09-25T10:00:38;3.63;;;3.33;;
6392;SDS011;3229;42.674;23.282;2022-09-25T10:03:09;5.03;;;3.40;;
6392;SDS011;3229;42.674;23.282;2022-09-25T10:05:40;3.60;;;3.30;;
6392;SDS011;3229;42.674;23.282;2022-09-25T10:08:11;5.30;;;3.50;;
6392;SDS011;3229;42.674;23.282;2022-09-25T10:10:39;5.13;;;3.20;;
6392;SDS011;3229;42.674;23.282;2022-09-25T10:13:11;4.95;;;3.33;;
6392;SDS011;3229;42.674;23.282;2022-09-25T10:15:45;4.13;;;3.28;;
6392;SDS011;3229;42.674;23.282;2022-09-25T10:18:16;4.60;;;3.50;;
6392;SDS011;3229;42.674;23.282;2022-09-25T10:20:46;3.50;;;3.20;;
6392;SDS011;3229;42.674;23.282;2022-09-25T10:23:25;3.15;;;2.92;;
6392;SDS011;3229;42.674;23.282;2022-09-25T10:25:58;4.15;;;2.88;;
6392;SDS011;3229;42.674;23.282;2022-09-25T10:28:26;4.57;;;3.47;;
6392;SDS011;3229;42.674;23.282;2022-09-25T10:30:56;4.65;;;3.28;;
6392;SDS011;3229;42.674;23.282;2022-09-25T10:33:24;4.60;;;2.80;;
6392;SDS011;3229;42.674;23.282;2022-09-25T10:35:52;4.80;;;3.20;;
6392;SDS011;3229;42.674;23.282;2022-09-25T10:38:31;3.65;;;3.35;;
6392;SDS011;3229;42.674;23.282;2022-09-25T10:41:03;4.28;;;3.42;;
6392;SDS011;3229;42.674;23.282;2022-09-25T10:43:32;4.18;;;3.35;;
6392;SDS011;3229;42.674;23.282;2022-09-25T10:46:05;4.55;;;3.35;;
6392;SDS011;3229;42.674;23.282;2022-09-25T10:48:35;4.03;;;3.63;;
6392;SDS011;3229;42.674;23.282;2022-09-25T10:51:20;3.50;;;3.20;;
6392;SDS011;3229;42.674;23.282;2022-09-25T10:53:48;4.13;;;3.42;;
6392;SDS011;3229;42.674;23.282;2022-09-25T10:56:19;4.45;;;3.17;;
6392;SDS011;3229;42.674;23.282;2022-09-25T10:58:51;5.35;;;3.47;;
6392;SDS011;3229;42.674;23.282;2022-09-25T11:01:27;4.10;;;3.47;;
6392;SDS011;3229;42.674;23.282;2022-09-25T11:03:58;4.00;;;3.28;;
6392;SDS011;3229;42.674;23.282;2022-09-25T11:06:26;5.28;;;3.42;;
6392;SDS011;3229;42.674;23.282;2022-09-25T11:09:05;4.05;;;2.75;;
6392;SDS011;3229;42.674;23.282;2022-09-25T11:11:34;3.85;;;3.30;;
6392;SDS011;3229;42.674;23.282;2022-09-25T11:14:04;5.00;;;3.50;;
6392;SDS011;3229;42.674;23.282;2022-09-25T11:16:44;6.10;;;3.55;;
6392;SDS011;3229;42.674;23.282;2022-09-25T11:19:14;4.50;;;3.33;;
6392;SDS011;3229;42.674;23.282;2022-09-25T11:21:47;3.45;;;3.15;;
6392;SDS011;3229;42.674;23.282;2022-09-25T11:24:22;5.50;;;3.45;;
6392;SDS011;3229;42.674;23.282;2022-09-25T11:26:56;4.07;;;3.17;;
6392;SDS011;3229;42.674;23.282;2022-09-25T11:29:33;5.28;;;2.85;;
6392;SDS011;3229;42.674;23.282;2022-09-25T11:32:09;3.58;;;2.78;;
6392;SDS011;3229;42.674;23.282;2022-09-25T11:34:56;3.38;;;3.13;;
6392;SDS011;3229;42.674;23.282;2022-09-25T11:37:30;3.90;;;3.50;;
6392;SDS011;3229;42.674;23.282;2022-09-25T11:40:04;3.72;;;2.83;;
6392;SDS011;3229;42.674;23.282;2022-09-25T11:43:02;3.40;;;3.08;;
6392;SDS011;3229;42.674;23.282;2022-09-25T11:45:33;3.35;;;3.05;;
6392;SDS011;3229;42.674;23.282;2022-09-25T11:48:10;6.10;;;3.03;;
6392;SDS011;3229;42.674;23.282;2022-09-25T11:50:44;2.83;;;2.63;;
6392;SDS011;3229;42.674;23.282;2022-09-25T11:53:21;5.18;;;2.83;;
6392;SDS011;3229;42.674;23.282;2022-09-25T11:56:02;5.53;;;2.90;;
6392;SDS011;3229;42.674;23.282;2022-09-25T11:58:45;3.95;;;2.80;;
6392;SDS011;3229;42.674;23.282;2022-09-25T12:01:25;3.50;;;3.05;;
6392;SDS011;3229;42.674;23.282;2022-09-25T12:07:16;3.60;;;2.80;;
6392;SDS011;3229;42.674;23.282;2022-09-25T12:09:57;3.53;;;2.70;;
6392;SDS011;3229;42.674;23.282;2022-09-25T12:12:34;5.32;;;2.95;;
6392;SDS011;3229;42.674;23.282;2022-09-25T12:15:10;3.20;;;2.90;;
6392;SDS011;3229;42.674;23.282;2022-09-25T12:17:48;3.92;;;2.90;;
6392;SDS011;3229;42.674;23.282;2022-09-25T12:20:24;2.83;;;2.40;;
6392;SDS011;3229;42.674;23.282;2022-09-25T12:23:03;2.97;;;2.67;;
6392;SDS011;3229;42.674;23.282;2022-09-25T12:25:53;2.90;;;2.60;;
6392;SDS011;3229;42.674;23.282;2022-09-25T12:28:29;6.13;;;2.70;;
6392;SDS011;3229;42.674;23.282;2022-09-25T12:31:07;2.78;;;2.50;;
6392;SDS011;3229;42.674;23.282;2022-09-25T12:33:44;2.85;;;2.60;;
6392;SDS011;3229;42.674;23.282;2022-09-25T12:36:18;3.60;;;2.72;;
6392;SDS011;3229;42.674;23.282;2022-09-25T12:38:50;4.50;;;2.60;;
6392;SDS011;3229;42.674;23.282;2022-09-25T12:41:23;2.92;;;2.72;;
6392;SDS011;3229;42.674;23.282;2022-09-25T12:43:56;3.00;;;2.70;;
6392;SDS011;3229;42.674;23.282;2022-09-25T12:46:30;2.80;;;2.60;;
6392;SDS011;3229;42.674;23.282;2022-09-25T12:49:06;3.30;;;2.88;;
6392;SDS011;3229;42.674;23.282;2022-09-25T12:51:39;3.72;;;2.50;;
6392;SDS011;3229;42.674;23.282;2022-09-25T12:54:13;2.85;;;2.50;;
6392;SDS011;3229;42.674;23.282;2022-09-25T12:56:49;4.43;;;2.72;;
6392;SDS011;3229;42.674;23.282;2022-09-25T12:59:22;3.00;;;2.40;;
6392;SDS011;3229;42.674;23.282;2022-09-25T13:01:54;6.18;;;2.50;;
6392;SDS011;3229;42.674;23.282;2022-09-25T13:04:36;4.10;;;2.80;;
6392;SDS011;3229;42.674;23.282;2022-09-25T13:07:12;3.00;;;2.70;;
6392;SDS011;3229;42.674;23.282;2022-09-25T13:09:44;3.42;;;2.72;;
6392;SDS011;3229;42.674;23.282;2022-09-25T13:12:17;2.63;;;2.20;;
6392;SDS011;3229;42.674;23.282;2022-09-25T13:14:51;3.58;;;2.58;;
6392;SDS011;3229;42.674;23.282;2022-09-25T13:17:22;2.72;;;2.53;;
6392;SDS011;3229;42.674;23.282;2022-09-25T13:19:49;2.85;;;2.55;;
6392;SDS011;3229;42.674;23.282;2022-09-25T13:22:17;3.58;;;2.30;;
6392;SDS011;3229;42.674;23.282;2022-09-25T13:24:50;2.92;;;2.72;;
6392;SDS011;3229;42.674;23.282;2022-09-25T13:27:23;2.70;;;2.50;;
6392;SDS011;3229;42.674;23.282;2022-09-25T13:29:52;2.63;;;2.42;;
6392;SDS011;3229;42.674;23.282;2022-09-25T13:32:22;2.83;;;2.50;;
6392;SDS011;3229;42.674;23.282;2022-09-25T13:34:54;5.13;;;2.83;;
6392;SDS011;3229;42.674;23.282;2022-09-25T13:37:24;4.10;;;2.38;;
6392;SDS011;3229;42.674;23.282;2022-09-25T13:39:55;2.40;;;2.20;;
6392;SDS011;3229;42.674;23.282;2022-09-25T13:42:39;2.63;;;2.42;;
6392;SDS011;3229;42.674;23.282;2022-09-25T13:45:27;2.83;;;2.63;;
6392;SDS011;3229;42.674;23.282;2022-09-25T13:47:57;2.60;;;2.40;;
6392;SDS011;3229;42.674;23.282;2022-09-25T13:50:30;2.08;;;1.98;;
6392;SDS011;3229;42.674;23.282;2022-09-25T13:53:09;2.50;;;2.30;;
6392;SDS011;3229;42.674;23.282;2022-09-25T13:56:03;3.40;;;2.50;;
6392;SDS011;3229;42.674;23.282;2022-09-25T14:01:44;3.05;;;2.50;;
6392;SDS011;3229;42.674;23.282;2022-09-25T14:04:15;5.88;;;2.53;;
6392;SDS011;3229;42.674;23.282;2022-09-25T14:06:49;2.60;;;2.40;;
6392;SDS011;3229;42.674;23.282;2022-09-25T14:09:23;2.47;;;2.30;;
6392;SDS011;3229;42.674;23.282;2022-09-25T14:11:56;2.45;;;2.28;;
6392;SDS011;3229;42.674;23.282;2022-09-25T14:14:31;2.17;;;2.05;;
6392;SDS011;3229;42.674;23.282;2022-09-25T14:17:09;2.58;;;2.40;;
6392;SDS011;3229;42.674;23.282;2022-09-25T14:19:43;2.38;;;2.22;;
6392;SDS011;3229;42.674;23.282;2022-09-25T14:22:16;2.20;;;2.00;;
6392;SDS011;3229;42.674;23.282;2022-09-25T14:24:48;2.35;;;2.15;;
6392;SDS011;3229;42.674;23.282;2022-09-25T14:27:20;2.50;;;2.25;;
6392;SDS011;3229;42.674;23.282;2022-09-25T14:29:50;2.30;;;2.10;;
6392;SDS011;3229;42.674;23.282;2022-09-25T14:32:27;2.33;;;1.98;;
6392;SDS011;3229;42.674;23.282;2022-09-25T14:35:08;2.65;;;2.42;;
6392;SDS011;3229;42.674;23.282;2022-09-25T14:37:55;2.95;;;2.65;;
6392;SDS011;3229;42.674;23.282;2022-09-25T14:40:34;2.00;;;1.90;;
6392;SDS011;3229;42.674;23.282;2022-09-25T14:46:04;3.63;;;2.17;;
6392;SDS011;3229;42.674;23.282;2022-09-25T14:48:35;2.47;;;2.28;;
6392;SDS011;3229;42.674;23.282;2022-09-25T14:51:07;3.70;;;2.67;;
6392;SDS011;3229;42.674;23.282;2022-09-25T14:53:37;2.38;;;2.17;;
6392;SDS011;3229;42.674;23.282;2022-09-25T14:56:07;3.10;;;2.60;;
6392;SDS011;3229;42.674;23.282;2022-09-25T14:58:38;2.60;;;2.40;;
6392;SDS011;3229;42.674;23.282;2022-09-25T15:01:13;2.45;;;2.25;;
6392;SDS011;3229;42.674;23.282;2022-09-25T15:03:47;2.97;;;2.20;;
6392;SDS011;3229;42.674;23.282;2022-09-25T15:06:25;2.17;;;2.08;;
6392;SDS011;3229;42.674;23.282;2022-09-25T15:08:54;2.35;;;2.15;;
6392;SDS011;3229;42.674;23.282;2022-09-25T15:11:22;2.33;;;2.08;;
6392;SDS011;3229;42.674;23.282;2022-09-25T15:13:52;2.65;;;2.45;;
6392;SDS011;3229;42.674;23.282;2022-09-25T15:16:19;2.80;;;2.60;;
6392;SDS011;3229;42.674;23.282;2022-09-25T15:19:06;2.53;;;2.33;;
6392;SDS011;3229;42.674;23.282;2022-09-25T15:21:41;3.40;;;2.20;;
6392;SDS011;3229;42.674;23.282;2022-09-25T15:24:13;2.30;;;2.10;;
6392;SDS011;3229;42.674;23.282;2022-09-25T15:26:43;4.10;;;2.17;;
6392;SDS011;3229;42.674;23.282;2022-09-25T15:29:16;2.40;;;2.20;;
6392;SDS011;3229;42.674;23.282;2022-09-25T15:31:45;2.75;;;2.47;;
6392;SDS011;3229;42.674;23.282;2022-09-25T15:34:19;2.45;;;2.15;;
6392;SDS011;3229;42.674;23.282;2022-09-25T15:36:47;3.95;;;2.55;;
6392;SDS011;3229;42.674;23.282;2022-09-25T15:39:16;2.70;;;2.50;;